createdAt,value
2019-01-11T00:04:17.123Z,20.83
2019-01-11T00:09:09.289Z,21.03
2019-01-11T00:14:01.546Z,21.27
2019-01-11T00:18:53.957Z,20.50
2019-01-11T00:23:46.091Z,17.63
2019-01-11T00:28:38.488Z,21.00
2019-01-11T00:33:30.780Z,16.47
2019-01-11T00:38:23.210Z,16.87
2019-01-11T00:43:15.665Z,15.93
2019-01-11T00:48:08.324Z,15.17
2019-01-11T00:53:00.890Z,15.30
2019-01-11T00:57:53.202Z,15.97
2019-01-11T01:02:45.566Z,19.63
2019-01-11T01:07:37.731Z,18.20
2019-01-11T01:12:29.817Z,16.07
2019-01-11T01:17:21.631Z,15.80
2019-01-11T01:22:14.113Z,14.63
2019-01-11T01:27:06.420Z,17.33
2019-01-11T01:31:58.913Z,13.73
2019-01-11T01:36:51.248Z,16.63
2019-01-11T01:41:43.614Z,16.17
2019-01-11T01:46:36.100Z,16.70
2019-01-11T01:51:28.293Z,16.93
2019-01-11T01:56:20.413Z,20.23
2019-01-11T02:01:12.460Z,34.67
2019-01-11T02:06:04.512Z,28.30
2019-01-11T02:10:56.812Z,16.27
2019-01-11T02:15:49.298Z,17.40
2019-01-11T02:20:41.514Z,17.47
2019-01-11T02:25:34.087Z,18.30
2019-01-11T02:30:26.549Z,15.43
2019-01-11T02:35:18.776Z,19.80
2019-01-11T02:40:12.245Z,16.07
2019-01-11T02:45:07.554Z,16.23
2019-01-11T02:50:00.010Z,17.47
2019-01-11T02:54:52.193Z,17.33
2019-01-11T02:59:44.513Z,20.27
2019-01-11T03:04:36.767Z,19.83
2019-01-11T03:09:29.217Z,15.03
2019-01-11T03:14:21.294Z,15.63
2019-01-11T03:19:13.509Z,15.53
2019-01-11T03:24:05.657Z,14.90
2019-01-11T03:28:57.832Z,18.03
2019-01-11T03:33:50.278Z,17.47
2019-01-11T03:38:42.466Z,17.60
2019-01-11T03:43:34.872Z,17.03
2019-01-11T03:48:27.246Z,17.50
2019-01-11T03:53:19.409Z,18.87
2019-01-11T03:58:11.744Z,16.00
2019-01-11T04:03:04.292Z,15.50
2019-01-11T04:07:56.864Z,15.57
2019-01-11T04:12:49.092Z,15.70
2019-01-11T04:17:41.340Z,16.27
2019-01-11T04:22:33.549Z,16.23
2019-01-11T04:27:26.057Z,27.73
2019-01-11T04:32:18.181Z,24.00
2019-01-11T04:37:10.377Z,34.13
2019-01-11T04:42:02.754Z,23.53
2019-01-11T04:46:55.409Z,31.63
2019-01-11T04:51:47.449Z,23.90
2019-01-11T04:56:39.779Z,22.80
2019-01-11T05:01:32.333Z,21.27
2019-01-11T05:06:24.511Z,21.67
2019-01-11T05:11:16.874Z,19.33
2019-01-11T05:16:09.284Z,17.47
2019-01-11T05:21:01.806Z,20.10
2019-01-11T05:25:53.910Z,19.17
2019-01-11T05:30:46.389Z,18.70
2019-01-11T05:35:38.649Z,21.87
2019-01-11T05:40:31.069Z,20.80
2019-01-11T05:45:24.028Z,20.17
2019-01-11T05:50:23.463Z,19.97
2019-01-11T05:55:12.861Z,19.80
2019-01-11T06:00:06.689Z,21.10
2019-01-11T06:04:59.982Z,19.50
2019-01-11T06:09:52.361Z,19.57
2019-01-11T06:14:44.812Z,20.80
2019-01-11T06:19:37.296Z,21.23
2019-01-11T06:24:29.517Z,21.60
2019-01-11T06:29:21.620Z,21.60
2019-01-11T06:34:13.877Z,21.97
2019-01-11T06:39:07.358Z,20.90
2019-01-11T06:43:59.425Z,20.43
2019-01-11T06:48:51.526Z,21.77
2019-01-11T06:53:43.880Z,21.23
2019-01-11T06:58:36.020Z,21.70
2019-01-11T07:03:28.500Z,22.40
2019-01-11T07:08:20.675Z,21.73
2019-01-11T07:13:13.153Z,22.07
2019-01-11T07:18:05.392Z,22.67
2019-01-11T07:22:57.553Z,22.20
2019-01-11T07:27:51.292Z,31.03
2019-01-11T07:32:43.596Z,26.90
2019-01-11T07:37:35.476Z,28.17
2019-01-11T07:42:27.940Z,25.43
2019-01-11T07:47:19.954Z,26.73
2019-01-11T07:52:12.083Z,26.40
2019-01-11T07:57:05.501Z,25.43
2019-01-11T08:01:58.062Z,24.10
2019-01-11T08:06:50.587Z,26.03
2019-01-11T08:11:42.958Z,27.27
2019-01-11T08:16:35.364Z,27.83
2019-01-11T08:21:27.442Z,28.43
2019-01-11T08:26:19.464Z,27.57
2019-01-11T08:31:11.605Z,29.20
2019-01-11T08:36:03.760Z,29.53
2019-01-11T08:40:56.189Z,25.23
2019-01-11T08:45:48.376Z,25.57
2019-01-11T08:50:41.087Z,27.80
2019-01-11T08:55:33.191Z,25.10
2019-01-11T09:00:25.372Z,35.87
2019-01-11T09:05:17.629Z,32.20
2019-01-11T09:10:22.386Z,35.80
2019-01-11T09:15:09.848Z,33.33
2019-01-11T09:20:02.007Z,27.03
2019-01-11T09:24:54.093Z,25.33
2019-01-11T09:29:46.729Z,26.00
2019-01-11T09:34:39.140Z,27.40
2019-01-11T09:39:31.265Z,23.63
2019-01-11T09:44:23.413Z,22.43
2019-01-11T09:49:15.740Z,21.40
2019-01-11T09:54:08.277Z,23.43
2019-01-11T09:59:00.661Z,23.33
2019-01-11T10:03:52.956Z,22.73
2019-01-11T10:08:45.261Z,23.27
2019-01-11T10:13:37.348Z,22.83
2019-01-11T10:18:29.540Z,24.33
2019-01-11T10:23:23.029Z,25.97
2019-01-11T10:28:15.152Z,22.23
2019-01-11T10:33:07.606Z,22.53
2019-01-11T10:37:59.950Z,20.73
2019-01-11T10:42:52.233Z,22.23
2019-01-11T10:47:44.368Z,22.27
2019-01-11T10:52:36.525Z,23.80
2019-01-11T10:57:28.878Z,25.63
2019-01-11T11:02:21.090Z,22.07
2019-01-11T11:07:13.505Z,20.50
2019-01-11T11:12:05.824Z,20.30
2019-01-11T11:16:58.033Z,19.83
2019-01-11T11:21:50.172Z,19.87
2019-01-11T11:26:42.277Z,18.83
2019-01-11T11:31:34.488Z,19.90
2019-01-11T11:36:27.607Z,18.80
2019-01-11T11:41:19.735Z,18.57
2019-01-11T11:46:12.009Z,19.10
2019-01-11T11:51:04.228Z,23.07
2019-01-11T11:55:56.661Z,19.20
2019-01-11T12:00:48.992Z,23.93
2019-01-11T12:05:41.085Z,22.03
2019-01-11T12:10:33.451Z,21.70
2019-01-11T12:15:25.708Z,20.80
2019-01-11T12:20:21.578Z,20.40
2019-01-11T12:25:14.049Z,18.17
2019-01-11T12:30:09.544Z,17.93
2019-01-11T12:35:02.074Z,16.27
2019-01-11T12:39:55.607Z,14.43
2019-01-11T12:44:48.172Z,13.67
2019-01-11T12:49:40.220Z,14.67
2019-01-11T12:54:32.485Z,14.70
2019-01-11T12:59:25.704Z,14.07
2019-01-11T13:04:18.209Z,15.70
2019-01-11T13:09:10.260Z,14.27
2019-01-11T13:14:02.349Z,17.37
2019-01-11T13:18:54.769Z,28.30
2019-01-11T13:23:47.206Z,18.40
2019-01-11T13:28:39.293Z,18.10
2019-01-11T13:33:31.816Z,19.57
2019-01-11T13:38:24.120Z,18.03
2019-01-11T13:43:16.663Z,19.57
2019-01-11T13:48:09.072Z,18.17
2019-01-11T13:53:01.610Z,19.00
2019-01-11T13:57:54.021Z,19.20
2019-01-11T14:02:46.460Z,18.27
2019-01-11T14:07:39.019Z,20.13
2019-01-11T14:12:31.212Z,18.57
2019-01-11T14:17:23.461Z,19.83
2019-01-11T14:22:15.621Z,17.50
2019-01-11T14:27:07.957Z,19.03
2019-01-11T14:32:00.461Z,18.40
2019-01-11T14:36:52.873Z,18.20
2019-01-11T14:41:45.537Z,17.23
2019-01-11T14:46:37.807Z,19.70
2019-01-11T14:51:30.349Z,20.23
2019-01-11T14:56:22.473Z,20.67
2019-01-11T15:01:14.793Z,18.80
2019-01-11T15:06:07.317Z,21.87
2019-01-11T15:10:59.500Z,20.07
2019-01-11T15:15:51.937Z,19.47
2019-01-11T15:20:44.419Z,20.87
2019-01-11T15:25:36.697Z,19.87
2019-01-11T15:30:28.969Z,20.97
2019-01-11T15:35:21.121Z,23.90
2019-01-11T15:40:16.025Z,21.90
2019-01-11T15:45:08.513Z,23.70
2019-01-11T15:50:00.621Z,29.20
2019-01-11T15:54:53.205Z,19.93
2019-01-11T16:00:01.964Z,22.93
2019-01-11T16:04:57.121Z,20.27
2019-01-11T16:09:55.865Z,19.00
2019-01-11T16:14:51.237Z,22.27
2019-01-11T16:19:43.541Z,20.33
2019-01-11T16:24:35.714Z,25.63
2019-01-11T16:29:28.125Z,24.13
2019-01-11T16:34:20.432Z,20.40
2019-01-11T16:39:12.596Z,24.33
2019-01-11T16:44:05.114Z,19.57
2019-01-11T16:48:57.345Z,21.60
2019-01-11T16:53:49.613Z,20.33
2019-01-11T16:58:42.042Z,20.37
2019-01-11T17:03:34.332Z,19.07
2019-01-11T17:08:26.803Z,18.97
2019-01-11T17:13:18.717Z,24.10
2019-01-11T17:18:10.948Z,22.63
2019-01-11T17:23:03.153Z,22.60
2019-01-11T17:27:55.553Z,25.53
2019-01-11T17:32:48.091Z,22.20
2019-01-11T17:37:40.108Z,24.10
2019-01-11T17:42:32.289Z,21.47
2019-01-11T17:47:24.744Z,21.47
2019-01-11T17:52:17.331Z,21.50
2019-01-11T17:57:09.787Z,20.57
2019-01-11T18:02:01.969Z,20.77
2019-01-11T18:06:54.296Z,21.50
2019-01-11T18:11:46.399Z,22.03
2019-01-11T18:16:38.882Z,20.63
2019-01-11T18:21:31.289Z,19.83
2019-01-11T18:26:23.529Z,22.40
2019-01-11T18:31:15.790Z,23.30
2019-01-11T18:36:08.176Z,27.90
2019-01-11T18:41:00.535Z,24.33
2019-01-11T18:45:53.025Z,20.40
2019-01-11T18:50:45.321Z,20.87
2019-01-11T18:55:37.244Z,20.73
2019-01-11T19:00:29.261Z,20.27
2019-01-11T19:05:21.693Z,19.00
2019-01-11T19:10:18.627Z,19.30
2019-01-11T19:15:13.703Z,19.90
2019-01-11T19:20:08.920Z,18.13
2019-01-11T19:25:01.580Z,19.93
2019-01-11T19:29:54.457Z,19.13
2019-01-11T19:34:47.061Z,21.23
2019-01-11T19:39:39.345Z,23.37
2019-01-11T19:44:31.855Z,21.07
2019-01-11T19:49:24.317Z,28.57
2019-01-11T19:54:16.364Z,19.30
2019-01-11T19:59:08.973Z,18.50
2019-01-11T20:04:01.051Z,20.73
2019-01-11T20:08:53.194Z,21.07
2019-01-11T20:13:45.357Z,20.43
2019-01-11T20:18:38.024Z,24.40
2019-01-11T20:23:35.474Z,20.80
2019-01-11T20:28:24.285Z,22.10
2019-01-11T20:33:16.721Z,22.87
2019-01-11T20:38:08.902Z,21.50
2019-01-11T20:43:01.192Z,21.63
2019-01-11T20:47:53.388Z,20.60
2019-01-11T20:52:46.232Z,21.73
2019-01-11T20:57:38.689Z,22.67
2019-01-11T21:02:30.824Z,19.93
2019-01-11T21:07:23.237Z,20.10
2019-01-11T21:12:15.597Z,19.53
2019-01-11T21:17:07.716Z,20.97
2019-01-11T21:21:59.887Z,19.67
2019-01-11T21:26:52.209Z,20.13
2019-01-11T21:31:44.437Z,20.00
2019-01-11T21:36:36.471Z,21.60
2019-01-11T21:41:28.685Z,20.13
2019-01-11T21:46:21.042Z,19.63
2019-01-11T21:51:13.230Z,19.00
2019-01-11T21:56:05.439Z,20.03
2019-01-11T22:00:58.288Z,19.50
2019-01-11T22:05:50.416Z,19.87
2019-01-11T22:10:42.885Z,18.87
2019-01-11T22:15:35.457Z,19.53
2019-01-11T22:20:27.840Z,18.93
2019-01-11T22:25:20.325Z,20.13
2019-01-11T22:30:18.611Z,19.67
2019-01-11T22:35:10.687Z,20.63
2019-01-11T22:40:03.117Z,20.53
2019-01-11T22:44:55.624Z,19.47
2019-01-11T22:49:47.942Z,19.93
2019-01-11T22:54:40.101Z,20.17
2019-01-11T22:59:32.108Z,20.37
2019-01-11T23:04:24.257Z,21.67
2019-01-11T23:09:16.408Z,19.97
2019-01-11T23:14:08.868Z,19.73
2019-01-11T23:19:01.289Z,19.23
2019-01-11T23:23:53.633Z,19.93
2019-01-11T23:28:46.185Z,18.50
2019-01-11T23:33:38.186Z,18.23
2019-01-11T23:38:30.094Z,18.53
2019-01-11T23:43:21.981Z,17.87
2019-01-11T23:48:14.027Z,17.90
2019-01-11T23:53:06.201Z,18.80
2019-01-11T23:57:58.617Z,19.60
